Hollandale, Wisconsin
Current Conditions -  °F | °C
As of 6:35 PM on Sunday 23 Nov 2014 (Local Time) from KMRJ Reporting Station
Light Rain Light Rain  
Wind Chill: 45°   Ceiling: 200
Heat Index: 48°   Visibility: 2.5mi
Dew Point: 46°   Wind: 7mph
Humidity: 93%   Direction: 120°ESE
Pressure: 29.3"   Gusts: NA
Location:  42.88°N, 89.94°W
Report Text: KMRJ 240035Z AUTO 12006KT 2 1/2SM -RA OVC002 09/08 A2930 RMK AO2 P0001
Loading
Personal Weather Stations






























Interactive Weather Map New forecast layout! Learn more

10-Day Weather Forecast

Advertisements
Track Severe Weather on mobile